createdAt,value
2023-09-10T00:00:30.867Z,13.57
2023-09-10T00:02:57.981Z,12.57
2023-09-10T00:05:25.214Z,14.32
2023-09-10T00:07:54.694Z,12.35
2023-09-10T00:10:21.736Z,13.15
2023-09-10T00:12:48.843Z,14.45
2023-09-10T00:15:16.018Z,14.55
2023-09-10T00:17:43.058Z,13.93
2023-09-10T00:20:11.693Z,14.48
2023-09-10T00:22:41.365Z,14.77
2023-09-10T00:25:08.526Z,15.25
2023-09-10T00:27:35.567Z,15.75
2023-09-10T00:30:03.008Z,14.50
2023-09-10T00:32:30.264Z,14.55
2023-09-10T00:34:57.340Z,17.42
2023-09-10T00:37:24.811Z,17.90
2023-09-10T00:39:51.932Z,16.42
2023-09-10T00:42:19.086Z,15.90
2023-09-10T00:44:46.369Z,15.70
2023-09-10T00:47:14.426Z,17.98
2023-09-10T00:49:42.362Z,18.48
2023-09-10T00:52:09.529Z,21.20
2023-09-10T00:54:37.458Z,19.55
2023-09-10T00:57:05.596Z,20.85
2023-09-10T00:59:32.838Z,21.20
2023-09-10T01:02:00.212Z,20.65
2023-09-10T01:04:27.515Z,21.15
2023-09-10T01:06:54.925Z,20.63
2023-09-10T01:09:27.289Z,22.33
2023-09-10T01:12:37.120Z,22.33
2023-09-10T01:15:31.376Z,23.75
2023-09-10T01:18:21.775Z,24.65
2023-09-10T01:21:07.572Z,24.20
2023-09-10T01:23:54.134Z,25.25
2023-09-10T01:26:21.189Z,25.60
2023-09-10T01:28:48.283Z,22.40
2023-09-10T01:31:15.632Z,23.30
2023-09-10T01:33:53.734Z,24.08
2023-09-10T01:36:40.012Z,25.73
2023-09-10T01:39:13.792Z,26.77
2023-09-10T01:41:44.911Z,24.55
2023-09-10T01:44:15.068Z,22.90
2023-09-10T01:46:43.964Z,24.02
2023-09-10T01:49:11.405Z,24.30
2023-09-10T01:51:38.560Z,26.67
2023-09-10T01:54:05.722Z,24.30
2023-09-10T01:56:32.791Z,27.55
2023-09-10T01:58:59.822Z,27.67
2023-09-10T02:01:26.975Z,29.55
2023-09-10T02:03:54.180Z,30.83
2023-09-10T02:06:21.325Z,28.25
2023-09-10T02:08:48.351Z,29.50
2023-09-10T02:11:15.546Z,27.90
2023-09-10T02:13:42.669Z,27.83
2023-09-10T02:16:10.094Z,29.25
2023-09-10T02:18:37.465Z,27.75
2023-09-10T02:21:12.880Z,29.85
2023-09-10T02:23:44.778Z,26.00
2023-09-10T02:26:12.120Z,23.85
2023-09-10T02:28:39.509Z,29.38
2023-09-10T02:31:09.855Z,28.63
2023-09-10T02:33:36.957Z,27.05
2023-09-10T02:36:04.729Z,27.33
2023-09-10T02:38:33.175Z,26.10
2023-09-10T02:41:01.008Z,30.35
2023-09-10T02:43:28.387Z,30.15
2023-09-10T02:45:55.730Z,30.65
2023-09-10T02:48:23.644Z,31.00
2023-09-10T02:50:50.730Z,29.23
2023-09-10T02:53:17.787Z,30.70
2023-09-10T02:55:44.897Z,26.95
2023-09-10T02:58:11.972Z,30.40
2023-09-10T03:00:40.108Z,29.58
2023-09-10T03:03:07.193Z,31.30
2023-09-10T03:05:35.645Z,28.50
2023-09-10T03:08:03.038Z,31.02
2023-09-10T03:10:30.140Z,32.10
2023-09-10T03:12:57.420Z,30.42
2023-09-10T03:15:25.770Z,29.45
2023-09-10T03:17:52.922Z,30.42
2023-09-10T03:20:20.129Z,31.08
2023-09-10T03:22:47.384Z,29.10
2023-09-10T03:25:14.592Z,31.02
2023-09-10T03:27:41.827Z,30.23
2023-09-10T03:30:09.502Z,31.42
2023-09-10T03:32:36.730Z,25.50
2023-09-10T03:35:05.672Z,28.33
2023-09-10T03:37:33.031Z,26.85
2023-09-10T03:40:00.047Z,28.95
2023-09-10T03:42:27.089Z,32.70
2023-09-10T03:44:54.324Z,30.42
2023-09-10T03:47:21.438Z,30.42
2023-09-10T03:49:48.598Z,31.08
2023-09-10T03:52:21.443Z,31.58
2023-09-10T03:54:49.339Z,29.67
2023-09-10T03:57:16.453Z,27.38
2023-09-10T03:59:43.868Z,28.08
2023-09-10T04:02:14.348Z,28.25
2023-09-10T04:04:42.870Z,30.40
2023-09-10T04:07:10.377Z,31.55
2023-09-10T04:09:37.392Z,30.90
2023-09-10T04:12:04.748Z,28.58
2023-09-10T04:14:32.165Z,32.33
2023-09-10T04:16:59.285Z,32.88
2023-09-10T04:19:26.362Z,31.33
2023-09-10T04:21:53.542Z,30.83
2023-09-10T04:24:20.671Z,34.53
2023-09-10T04:26:48.787Z,30.35
2023-09-10T04:29:16.082Z,36.50
2023-09-10T04:31:44.522Z,36.30
2023-09-10T04:34:12.826Z,34.42
2023-09-10T04:36:40.709Z,33.25
2023-09-10T04:39:10.598Z,39.17
2023-09-10T04:41:41.861Z,37.92
2023-09-10T04:44:09.619Z,33.38
2023-09-10T04:46:37.481Z,38.65
2023-09-10T04:49:04.904Z,39.03
2023-09-10T04:51:32.023Z,37.53
2023-09-10T04:54:00.241Z,39.20
2023-09-10T04:56:27.579Z,39.90
2023-09-10T04:58:54.741Z,40.35
2023-09-10T05:01:22.753Z,41.15
2023-09-10T05:03:50.024Z,42.13
2023-09-10T05:06:20.766Z,41.50
2023-09-10T05:08:47.902Z,42.38
2023-09-10T05:11:15.957Z,42.78
2023-09-10T05:13:43.187Z,43.13
2023-09-10T05:16:10.470Z,38.58
2023-09-10T05:18:40.987Z,37.40
2023-09-10T05:21:08.895Z,36.90
2023-09-10T05:23:36.069Z,36.08
2023-09-10T05:26:04.470Z,38.95
2023-09-10T05:28:32.537Z,39.35
2023-09-10T05:31:10.098Z,39.60
2023-09-10T05:33:39.719Z,39.28
2023-09-10T05:36:08.303Z,37.13
2023-09-10T05:38:35.585Z,37.70
2023-09-10T05:41:05.337Z,39.20
2023-09-10T05:43:32.830Z,41.63
2023-09-10T05:46:00.909Z,38.17
2023-09-10T05:48:28.375Z,38.25
2023-09-10T05:50:59.929Z,39.22
2023-09-10T05:53:29.809Z,39.58
2023-09-10T05:55:57.029Z,40.63
2023-09-10T05:58:25.598Z,40.15
2023-09-10T06:00:56.429Z,39.72
2023-09-10T06:03:25.389Z,37.83
2023-09-10T06:05:52.779Z,39.28
2023-09-10T06:08:20.113Z,38.25
2023-09-10T06:10:47.349Z,38.42
2023-09-10T06:13:14.480Z,37.53
2023-09-10T06:15:42.449Z,37.17
2023-09-10T06:18:09.955Z,39.22
2023-09-10T06:20:37.109Z,38.83
2023-09-10T06:23:04.686Z,38.90
2023-09-10T06:25:33.063Z,36.70
2023-09-10T06:28:00.318Z,35.10
2023-09-10T06:30:28.261Z,37.13
2023-09-10T06:32:55.478Z,33.45
2023-09-10T06:35:22.736Z,35.38
2023-09-10T06:37:50.070Z,34.10
2023-09-10T06:40:17.725Z,34.78
2023-09-10T06:42:46.776Z,32.53
2023-09-10T06:45:25.118Z,32.28
2023-09-10T06:47:52.164Z,33.45
2023-09-10T06:50:19.403Z,33.60
2023-09-10T06:52:46.531Z,33.22
2023-09-10T06:55:15.252Z,32.38
2023-09-10T06:57:44.720Z,31.40
2023-09-10T07:00:12.503Z,32.80
2023-09-10T07:02:39.623Z,30.23
2023-09-10T07:05:07.098Z,29.27
2023-09-10T07:07:34.178Z,27.17
2023-09-10T07:10:01.216Z,26.33
2023-09-10T07:12:28.312Z,29.67
2023-09-10T07:14:55.317Z,30.38
2023-09-10T07:17:22.455Z,29.23
2023-09-10T07:19:50.017Z,26.17
2023-09-10T07:22:17.124Z,28.42
2023-09-10T07:24:44.173Z,27.30
2023-09-10T07:27:11.360Z,26.33
2023-09-10T07:29:38.368Z,27.15
2023-09-10T07:32:05.846Z,26.88
2023-09-10T07:34:32.939Z,25.23
2023-09-10T07:36:59.974Z,25.15
2023-09-10T07:39:30.533Z,24.65
2023-09-10T07:41:57.964Z,23.48
2023-09-10T07:44:25.141Z,24.63
2023-09-10T07:46:53.805Z,21.73
2023-09-10T07:49:20.961Z,22.40
2023-09-10T07:51:48.010Z,21.55
2023-09-10T07:54:15.082Z,22.38
2023-09-10T07:56:42.104Z,21.27
2023-09-10T07:59:12.768Z,21.08
2023-09-10T08:01:40.313Z,21.98
2023-09-10T08:04:08.124Z,21.17
2023-09-10T08:06:35.291Z,21.08
2023-09-10T08:09:02.389Z,20.13
2023-09-10T08:11:29.622Z,19.95
2023-09-10T08:13:56.710Z,19.75
2023-09-10T08:16:23.968Z,19.35
2023-09-10T08:18:51.295Z,18.45
2023-09-10T08:21:18.445Z,18.08
2023-09-10T08:23:46.134Z,18.83
2023-09-10T08:26:13.456Z,17.55
2023-09-10T08:28:41.180Z,17.50
2023-09-10T08:31:08.485Z,16.40
2023-09-10T08:33:35.543Z,16.05
2023-09-10T08:36:02.690Z,16.13
2023-09-10T08:38:29.898Z,16.45
2023-09-10T08:40:59.804Z,13.88
2023-09-10T08:43:42.512Z,14.07
2023-09-10T08:46:11.861Z,14.45
2023-09-10T08:48:44.933Z,13.73
2023-09-10T08:51:14.153Z,13.38
2023-09-10T08:53:44.290Z,14.35
2023-09-10T08:56:12.824Z,13.02
2023-09-10T08:58:43.704Z,13.15
2023-09-10T09:01:13.312Z,13.63
2023-09-10T09:03:41.003Z,12.40
2023-09-10T09:06:09.410Z,12.57
2023-09-10T09:08:37.855Z,12.57
2023-09-10T09:11:10.203Z,12.48
2023-09-10T09:13:45.509Z,12.65
2023-09-10T09:16:13.753Z,12.05
2023-09-10T09:18:42.260Z,11.02
2023-09-10T09:21:18.157Z,11.15
2023-09-10T09:23:52.170Z,11.57
2023-09-10T09:26:20.035Z,11.07
2023-09-10T09:28:47.709Z,10.95
2023-09-10T09:31:15.202Z,11.60
2023-09-10T09:33:45.182Z,10.52
2023-09-10T09:36:12.798Z,9.70
2023-09-10T09:38:45.098Z,10.43
2023-09-10T09:41:15.353Z,9.48
2023-09-10T09:43:42.632Z,8.60
2023-09-10T09:46:10.836Z,8.63
2023-09-10T09:48:40.100Z,8.25
2023-09-10T09:51:07.605Z,7.55
2023-09-10T09:53:34.976Z,7.80
2023-09-10T09:56:06.009Z,7.90
2023-09-10T09:58:34.353Z,7.63
2023-09-10T10:01:02.256Z,7.60
2023-09-10T10:03:33.477Z,7.53
2023-09-10T10:06:02.687Z,9.48
2023-09-10T10:08:34.039Z,8.45
2023-09-10T10:11:01.334Z,8.00
2023-09-10T10:13:28.755Z,7.50
2023-09-10T10:15:57.561Z,6.70
2023-09-10T10:18:30.893Z,6.18
2023-09-10T10:21:04.619Z,6.72
2023-09-10T10:23:40.600Z,6.72
2023-09-10T10:26:12.028Z,6.00
2023-09-10T10:28:40.436Z,5.85
2023-09-10T10:31:18.984Z,5.97
2023-09-10T10:33:56.223Z,5.68
2023-09-10T10:36:56.736Z,5.32
2023-09-10T10:39:38.262Z,5.68
2023-09-10T10:42:10.852Z,5.50
2023-09-10T10:44:39.404Z,6.13
2023-09-10T10:47:20.426Z,5.60
2023-09-10T10:49:55.978Z,5.78
2023-09-10T10:52:32.860Z,5.82
2023-09-10T10:55:00.398Z,5.90
2023-09-10T10:57:30.802Z,5.28
2023-09-10T10:59:58.644Z,5.35
2023-09-10T11:02:26.017Z,5.63
2023-09-10T11:05:04.177Z,5.63
2023-09-10T11:07:33.511Z,6.10
2023-09-10T11:10:30.555Z,5.70
2023-09-10T11:13:09.052Z,5.88
2023-09-10T11:15:36.823Z,5.57
2023-09-10T11:18:40.880Z,5.80
2023-09-10T11:21:09.858Z,5.88
2023-09-10T11:23:41.140Z,5.90
2023-09-10T11:26:14.727Z,6.22
2023-09-10T11:28:51.960Z,6.22
2023-09-10T11:31:34.443Z,5.82
2023-09-10T11:34:20.573Z,5.60
2023-09-10T11:36:58.024Z,4.80
2023-09-10T11:39:26.195Z,5.50
2023-09-10T11:41:55.871Z,5.10
2023-09-10T11:44:23.270Z,5.50
2023-09-10T11:46:54.927Z,5.20
2023-09-10T11:49:24.981Z,4.88
2023-09-10T11:51:56.889Z,4.60
2023-09-10T11:54:24.574Z,4.13
2023-09-10T11:56:56.690Z,4.68
2023-09-10T11:59:31.922Z,5.05
2023-09-10T12:02:00.631Z,4.90
2023-09-10T12:04:34.159Z,4.25
2023-09-10T12:07:02.776Z,4.22
2023-09-10T12:09:32.211Z,5.57
2023-09-10T12:12:15.212Z,5.47
2023-09-10T12:14:43.186Z,5.82
2023-09-10T12:17:11.404Z,6.18
2023-09-10T12:19:39.709Z,5.72
2023-09-10T12:22:12.036Z,5.70
2023-09-10T12:24:42.050Z,5.20
2023-09-10T12:27:10.675Z,5.57
2023-09-10T12:29:38.606Z,5.60
2023-09-10T12:32:06.514Z,6.35
2023-09-10T12:34:34.504Z,5.95
2023-09-10T12:37:01.604Z,6.40
2023-09-10T12:39:28.989Z,5.88
2023-09-10T12:42:04.957Z,5.97
2023-09-10T12:44:34.974Z,5.25
2023-09-10T12:47:02.489Z,5.13
2023-09-10T12:49:30.354Z,5.38
2023-09-10T12:51:57.364Z,5.13
2023-09-10T12:54:24.996Z,5.43
2023-09-10T12:56:53.010Z,5.03
2023-09-10T12:59:22.124Z,4.72
2023-09-10T13:01:50.952Z,5.10
2023-09-10T13:04:18.520Z,4.20
2023-09-10T13:06:49.199Z,4.00
2023-09-10T13:09:17.632Z,4.13
2023-09-10T13:11:44.781Z,4.97
2023-09-10T13:14:11.875Z,4.90
2023-09-10T13:16:38.905Z,5.25
2023-09-10T13:19:06.215Z,4.90
2023-09-10T13:21:34.803Z,4.50
2023-09-10T13:24:02.064Z,4.55
2023-09-10T13:26:29.369Z,5.15
2023-09-10T13:28:56.445Z,5.60
2023-09-10T13:31:23.545Z,3.63
2023-09-10T13:33:51.663Z,4.18
2023-09-10T13:36:18.738Z,3.70
2023-09-10T13:38:45.869Z,3.83
2023-09-10T13:41:13.370Z,3.22
2023-09-10T13:43:40.970Z,3.42
2023-09-10T13:46:08.724Z,3.35
2023-09-10T13:48:35.967Z,3.45
2023-09-10T13:51:03.343Z,3.50
2023-09-10T13:53:30.803Z,3.33
2023-09-10T13:56:00.742Z,3.00
2023-09-10T13:58:27.876Z,4.10
2023-09-10T14:00:54.903Z,3.95
2023-09-10T14:03:27.553Z,4.40
2023-09-10T14:05:55.735Z,3.70
2023-09-10T14:08:22.899Z,4.22
2023-09-10T14:10:50.058Z,3.90
2023-09-10T14:13:17.193Z,4.45
2023-09-10T14:15:44.426Z,4.20
2023-09-10T14:18:12.344Z,4.28
2023-09-10T14:20:39.561Z,4.25
2023-09-10T14:23:06.923Z,4.18
2023-09-10T14:25:34.533Z,4.35
2023-09-10T14:28:01.586Z,3.85
2023-09-10T14:30:28.858Z,4.00
2023-09-10T14:32:56.075Z,3.80
2023-09-10T14:35:23.461Z,4.28
2023-09-10T14:37:50.959Z,3.75
2023-09-10T14:40:18.763Z,3.80
2023-09-10T14:42:46.035Z,3.83
2023-09-10T14:45:13.350Z,3.78
2023-09-10T14:47:40.759Z,3.45
2023-09-10T14:50:13.970Z,3.65
2023-09-10T14:52:45.480Z,3.58
2023-09-10T14:55:13.420Z,3.78
2023-09-10T14:57:40.953Z,3.75
2023-09-10T15:00:08.735Z,3.58
2023-09-10T15:02:38.261Z,3.88
2023-09-10T15:05:09.303Z,3.85
2023-09-10T15:07:36.532Z,3.78
2023-09-10T15:10:04.308Z,3.72
2023-09-10T15:12:31.554Z,3.60
2023-09-10T15:14:58.637Z,4.40
2023-09-10T15:17:25.693Z,3.63
2023-09-10T15:19:52.834Z,3.60
2023-09-10T15:22:19.852Z,3.85
2023-09-10T15:24:47.046Z,4.28
2023-09-10T15:27:14.076Z,3.35
2023-09-10T15:29:41.175Z,4.05
2023-09-10T15:32:08.831Z,3.55
2023-09-10T15:34:35.863Z,3.58
2023-09-10T15:37:02.966Z,3.45
2023-09-10T15:39:30.369Z,3.72
2023-09-10T15:41:57.552Z,3.42
2023-09-10T15:44:24.931Z,3.67
2023-09-10T15:46:52.116Z,3.70
2023-09-10T15:49:19.812Z,3.85
2023-09-10T15:51:47.008Z,4.20
2023-09-10T15:54:14.345Z,3.45
2023-09-10T15:56:41.500Z,3.58
2023-09-10T15:59:09.947Z,3.53
2023-09-10T16:01:37.383Z,3.53
2023-09-10T16:04:05.025Z,3.97
2023-09-10T16:06:34.878Z,3.60
2023-09-10T16:09:04.799Z,3.67
2023-09-10T16:11:33.683Z,4.15
2023-09-10T16:14:01.002Z,3.80
2023-09-10T16:16:28.720Z,3.58
2023-09-10T16:18:59.593Z,3.50
2023-09-10T16:21:28.246Z,4.32
2023-09-10T16:23:55.400Z,4.30
2023-09-10T16:26:22.846Z,4.03
2023-09-10T16:28:49.867Z,4.10
2023-09-10T16:31:17.248Z,3.85
2023-09-10T16:33:44.366Z,4.00
2023-09-10T16:36:11.410Z,3.90
2023-09-10T16:38:38.472Z,3.70
2023-09-10T16:41:05.579Z,4.25
2023-09-10T16:43:32.682Z,4.30
2023-09-10T16:45:59.810Z,4.13
2023-09-10T16:48:26.980Z,3.95
2023-09-10T16:50:54.232Z,4.30
2023-09-10T16:53:21.293Z,4.03
2023-09-10T16:55:54.076Z,4.05
2023-09-10T16:58:23.492Z,4.03
2023-09-10T17:00:51.089Z,3.97
2023-09-10T17:03:18.324Z,4.07
2023-09-10T17:05:46.043Z,4.05
2023-09-10T17:08:13.259Z,4.00
2023-09-10T17:10:40.390Z,3.95
2023-09-10T17:13:07.654Z,4.03
2023-09-10T17:15:35.504Z,4.53
2023-09-10T17:18:03.375Z,4.20
2023-09-10T17:20:33.609Z,4.78
2023-09-10T17:23:02.005Z,4.90
2023-09-10T17:25:29.288Z,5.32
2023-09-10T17:27:58.236Z,4.63
2023-09-10T17:30:25.249Z,5.05
2023-09-10T17:32:59.655Z,5.20
2023-09-10T17:37:55.624Z,4.78
2023-09-10T17:40:26.974Z,5.22
2023-09-10T17:42:53.984Z,5.18
2023-09-10T17:45:22.042Z,5.53
2023-09-10T17:47:49.156Z,5.22
2023-09-10T17:50:16.328Z,5.68
2023-09-10T17:52:43.490Z,6.20
2023-09-10T17:55:10.571Z,6.20
2023-09-10T17:57:37.602Z,6.45
2023-09-10T18:00:07.608Z,5.80
2023-09-10T18:02:34.870Z,6.40
2023-09-10T18:05:04.327Z,6.28
2023-09-10T18:07:33.362Z,5.97
2023-09-10T18:10:00.985Z,5.93
2023-09-10T18:12:28.224Z,6.80
2023-09-10T18:14:55.379Z,6.40
2023-09-10T18:17:22.593Z,6.10
2023-09-10T18:19:49.729Z,6.47
2023-09-10T18:22:16.954Z,6.00
2023-09-10T18:24:45.035Z,6.72
2023-09-10T18:27:12.180Z,6.20
2023-09-10T18:29:40.190Z,6.18
2023-09-10T18:32:07.943Z,6.25
2023-09-10T18:34:35.493Z,6.43
2023-09-10T18:37:02.602Z,6.55
2023-09-10T18:39:29.807Z,6.28
2023-09-10T18:41:58.367Z,6.68
2023-09-10T18:44:25.461Z,6.72
2023-09-10T18:46:57.371Z,6.20
2023-09-10T18:49:24.662Z,6.38
2023-09-10T18:52:15.568Z,6.47
2023-09-10T18:54:44.043Z,6.28
2023-09-10T18:57:14.849Z,6.85
2023-09-10T18:59:43.018Z,6.22
2023-09-10T19:02:10.535Z,6.47
2023-09-10T19:04:38.156Z,6.68
2023-09-10T19:07:08.163Z,6.45
2023-09-10T19:09:35.676Z,6.30
2023-09-10T19:12:03.093Z,6.07
2023-09-10T19:14:31.674Z,6.93
2023-09-10T19:16:58.809Z,6.53
2023-09-10T19:19:25.920Z,7.10
2023-09-10T19:21:52.979Z,6.70
2023-09-10T19:24:20.065Z,7.07
2023-09-10T19:26:47.166Z,7.15
2023-09-10T19:29:14.230Z,7.60
2023-09-10T19:31:42.276Z,7.35
2023-09-10T19:34:09.846Z,6.95
2023-09-10T19:36:37.034Z,7.18
2023-09-10T19:39:10.861Z,7.43
2023-09-10T19:41:39.402Z,7.10
2023-09-10T19:44:09.063Z,6.80
2023-09-10T19:46:37.485Z,7.30
2023-09-10T19:49:04.858Z,6.72
2023-09-10T19:51:32.038Z,7.32
2023-09-10T19:53:59.154Z,7.18
2023-09-10T19:56:28.391Z,8.00
2023-09-10T19:59:12.907Z,8.15
2023-09-10T20:01:45.134Z,7.40
2023-09-10T20:04:13.239Z,7.72
2023-09-10T20:06:42.688Z,7.38
2023-09-10T20:09:09.897Z,7.13
2023-09-10T20:11:37.867Z,7.82
2023-09-10T20:14:07.382Z,7.20
2023-09-10T20:16:35.284Z,8.05
2023-09-10T20:19:02.364Z,7.70
2023-09-10T20:21:29.496Z,8.20
2023-09-10T20:23:56.596Z,7.65
2023-09-10T20:26:25.045Z,7.82
2023-09-10T20:28:52.190Z,7.68
2023-09-10T20:31:19.326Z,7.95
2023-09-10T20:33:47.170Z,7.70
2023-09-10T20:36:14.448Z,8.20
2023-09-10T20:38:41.976Z,8.00
2023-09-10T20:41:17.314Z,7.90
2023-09-10T20:43:44.963Z,9.10
2023-09-10T20:46:13.256Z,9.10
2023-09-10T20:48:41.281Z,8.00
2023-09-10T20:51:09.788Z,8.65
2023-09-10T20:53:38.544Z,8.65
2023-09-10T20:56:05.735Z,8.30
2023-09-10T20:58:32.869Z,8.40
2023-09-10T21:01:00.356Z,8.25
2023-09-10T21:03:30.350Z,8.18
2023-09-10T21:05:59.419Z,8.10
2023-09-10T21:08:27.488Z,8.63
2023-09-10T21:10:54.831Z,8.88
2023-09-10T21:13:21.891Z,8.63
2023-09-10T21:15:49.278Z,8.93
2023-09-10T21:18:20.098Z,7.90
2023-09-10T21:20:47.225Z,8.93
2023-09-10T21:23:14.387Z,9.60
2023-09-10T21:25:42.759Z,8.75
2023-09-10T21:28:10.336Z,9.40
2023-09-10T21:30:37.437Z,9.20
2023-09-10T21:33:06.333Z,9.73
2023-09-10T21:35:34.175Z,9.40
2023-09-10T21:38:01.307Z,9.52
2023-09-10T21:40:28.347Z,9.25
2023-09-10T21:42:55.381Z,10.07
2023-09-10T21:45:22.446Z,8.80
2023-09-10T21:47:49.570Z,9.40
2023-09-10T21:50:16.662Z,9.50
2023-09-10T21:52:43.689Z,9.15
2023-09-10T21:55:10.724Z,9.52
2023-09-10T21:57:37.763Z,9.68
2023-09-10T22:00:05.823Z,9.48
2023-09-10T22:02:33.076Z,9.30
2023-09-10T22:05:00.411Z,10.13
2023-09-10T22:07:27.486Z,9.70
2023-09-10T22:09:55.375Z,9.70
2023-09-10T22:12:22.659Z,10.10
2023-09-10T22:14:50.180Z,10.13
2023-09-10T22:17:17.273Z,9.05
2023-09-10T22:19:44.350Z,9.00
2023-09-10T22:22:11.815Z,9.88
2023-09-10T22:24:38.948Z,10.07
2023-09-10T22:27:06.050Z,9.77
2023-09-10T22:29:33.144Z,10.98
2023-09-10T22:32:00.239Z,10.63
2023-09-10T22:34:27.263Z,10.48
2023-09-10T22:36:55.430Z,10.45
2023-09-10T22:39:22.511Z,10.30
2023-09-10T22:41:49.565Z,11.07
2023-09-10T22:44:16.730Z,11.80
2023-09-10T22:46:43.800Z,12.07
2023-09-10T22:49:10.815Z,11.25
2023-09-10T22:51:38.711Z,12.13
2023-09-10T22:54:05.841Z,11.95
2023-09-10T22:56:33.125Z,12.35
2023-09-10T22:59:00.345Z,13.20
2023-09-10T23:01:27.925Z,11.95
2023-09-10T23:03:55.332Z,12.52
2023-09-10T23:06:22.645Z,12.18
2023-09-10T23:08:49.732Z,12.70
2023-09-10T23:11:16.971Z,12.10
2023-09-10T23:13:44.150Z,12.68
2023-09-10T23:16:11.331Z,10.90
2023-09-10T23:18:38.589Z,11.65
2023-09-10T23:21:05.859Z,11.57
2023-09-10T23:23:32.938Z,11.73
2023-09-10T23:26:02.411Z,11.85
2023-09-10T23:28:30.481Z,11.80
2023-09-10T23:30:57.585Z,12.20
2023-09-10T23:33:24.662Z,11.52
2023-09-10T23:35:52.297Z,11.98
2023-09-10T23:38:19.433Z,12.25
2023-09-10T23:40:57.813Z,12.25
2023-09-10T23:43:26.024Z,12.30
2023-09-10T23:45:53.542Z,11.35
2023-09-10T23:48:20.821Z,11.90
2023-09-10T23:50:48.062Z,11.82
2023-09-10T23:53:15.131Z,11.90
2023-09-10T23:55:42.241Z,12.57
2023-09-10T23:58:09.289Z,12.88
